createdAt,value
2023-03-08T00:00:41.414Z,0.00
2023-03-08T00:01:41.486Z,0.00
2023-03-08T00:02:41.461Z,0.00
2023-03-08T00:03:41.533Z,0.00
2023-03-08T00:04:41.280Z,0.00
2023-03-08T00:05:41.163Z,0.00
2023-03-08T00:06:41.111Z,0.00
2023-03-08T00:07:41.318Z,0.00
2023-03-08T00:08:42.301Z,0.00
2023-03-08T00:09:41.131Z,0.00
2023-03-08T00:10:40.935Z,0.00
2023-03-08T00:11:41.148Z,0.00
2023-03-08T00:12:40.836Z,0.00
2023-03-08T00:13:40.960Z,0.00
2023-03-08T00:14:40.752Z,0.00
2023-03-08T00:15:40.823Z,0.00
2023-03-08T00:16:40.640Z,0.00
2023-03-08T00:17:40.812Z,0.00
2023-03-08T00:18:40.554Z,0.00
2023-03-08T00:19:41.633Z,0.00
2023-03-08T00:20:40.695Z,0.00
2023-03-08T00:21:40.600Z,0.00
2023-03-08T00:22:40.374Z,0.00
2023-03-08T00:23:40.415Z,0.00
2023-03-08T00:24:40.278Z,0.00
2023-03-08T00:25:40.436Z,0.00
2023-03-08T00:26:40.180Z,0.00
2023-03-08T00:27:40.238Z,0.00
2023-03-08T00:28:40.146Z,0.00
2023-03-08T00:29:40.253Z,0.00
2023-03-08T00:30:39.989Z,0.00
2023-03-08T00:31:40.346Z,0.00
2023-03-08T00:32:39.977Z,0.00
2023-03-08T00:33:40.080Z,0.00
2023-03-08T00:34:39.810Z,0.00
2023-03-08T00:35:39.937Z,0.00
2023-03-08T00:36:39.902Z,0.00
2023-03-08T00:37:39.687Z,0.00
2023-03-08T00:38:39.710Z,0.00
2023-03-08T00:39:39.598Z,0.00
2023-03-08T00:40:39.724Z,0.00
2023-03-08T00:41:39.530Z,0.00
2023-03-08T00:42:39.813Z,0.00
2023-03-08T00:43:39.399Z,0.00
2023-03-08T00:44:39.556Z,0.00
2023-03-08T00:45:39.299Z,0.00
2023-03-08T00:46:39.391Z,0.00
2023-03-08T00:47:39.218Z,0.00
2023-03-08T00:48:39.199Z,0.00
2023-03-08T00:49:39.132Z,0.00
2023-03-08T00:50:40.213Z,0.00
2023-03-08T00:51:39.025Z,0.00
2023-03-08T00:52:41.254Z,0.00
2023-03-08T00:53:38.929Z,0.00
2023-03-08T00:54:39.110Z,0.00
2023-03-08T00:55:38.857Z,0.00
2023-03-08T00:56:39.033Z,0.00
2023-03-08T00:57:38.759Z,0.00
2023-03-08T00:58:39.864Z,0.00
2023-03-08T00:59:38.650Z,0.00
2023-03-08T01:00:38.744Z,0.00
2023-03-08T01:01:38.563Z,0.00
2023-03-08T01:02:38.758Z,0.00
2023-03-08T01:03:38.465Z,0.00
2023-03-08T01:04:38.569Z,0.00
2023-03-08T01:05:38.368Z,0.00
2023-03-08T01:06:38.459Z,0.00
2023-03-08T01:07:38.278Z,0.00
2023-03-08T01:08:38.498Z,0.00
2023-03-08T01:09:38.180Z,0.00
2023-03-08T01:10:38.306Z,0.00
2023-03-08T01:11:38.120Z,0.00
2023-03-08T01:12:38.334Z,0.00
2023-03-08T01:13:38.179Z,0.00
2023-03-08T01:14:38.153Z,0.00
2023-03-08T01:15:37.909Z,0.00
2023-03-08T01:16:38.153Z,0.00
2023-03-08T01:17:37.813Z,0.00
2023-03-08T01:18:37.993Z,0.00
2023-03-08T01:19:37.711Z,0.00
2023-03-08T01:20:37.770Z,0.00
2023-03-08T01:21:37.626Z,0.00
2023-03-08T01:22:37.988Z,0.00
2023-03-08T01:23:37.537Z,0.00
2023-03-08T01:24:37.592Z,0.00
2023-03-08T01:25:37.469Z,0.00
2023-03-08T01:26:37.505Z,0.00
2023-03-08T01:27:37.360Z,0.00
2023-03-08T01:28:37.445Z,0.00
2023-03-08T01:29:37.248Z,0.00
2023-03-08T01:30:37.453Z,0.00
2023-03-08T01:31:37.216Z,0.00
2023-03-08T01:32:38.440Z,0.00
2023-03-08T01:33:37.061Z,0.00
2023-03-08T01:34:37.357Z,0.00
2023-03-08T01:35:36.992Z,0.00
2023-03-08T01:36:37.169Z,0.00
2023-03-08T01:37:36.871Z,0.00
2023-03-08T01:38:36.981Z,0.00
2023-03-08T01:39:36.776Z,0.00
2023-03-08T01:40:36.926Z,0.00
2023-03-08T01:41:36.792Z,0.00
2023-03-08T01:42:36.652Z,0.00
2023-03-08T01:43:36.601Z,0.00
2023-03-08T01:44:36.822Z,0.00
2023-03-08T01:45:36.501Z,0.00
2023-03-08T01:46:36.744Z,0.00
2023-03-08T01:47:36.443Z,0.00
2023-03-08T01:48:36.547Z,0.00
2023-03-08T01:49:36.542Z,0.00
2023-03-08T01:50:36.302Z,0.00
2023-03-08T01:51:36.508Z,0.00
2023-03-08T01:52:36.177Z,0.00
2023-03-08T01:53:36.469Z,0.00
2023-03-08T01:54:36.071Z,0.00
2023-03-08T01:55:36.032Z,0.00
2023-03-08T01:56:35.979Z,0.00
2023-03-08T01:57:36.087Z,0.00
2023-03-08T01:58:35.885Z,0.00
2023-03-08T01:59:36.111Z,0.00
2023-03-08T02:00:35.790Z,0.00
2023-03-08T02:01:35.745Z,0.00
2023-03-08T02:02:35.705Z,0.00
2023-03-08T02:03:35.932Z,0.00
2023-03-08T02:04:35.604Z,0.00
2023-03-08T02:05:35.942Z,0.00
2023-03-08T02:06:35.518Z,0.00
2023-03-08T02:07:35.473Z,0.00
2023-03-08T02:08:35.426Z,0.00
2023-03-08T02:09:35.464Z,0.00
2023-03-08T02:10:35.442Z,0.00
2023-03-08T02:11:35.480Z,0.00
2023-03-08T02:12:35.233Z,0.00
2023-03-08T02:13:35.290Z,0.00
2023-03-08T02:14:35.140Z,0.00
2023-03-08T02:15:35.323Z,0.00
2023-03-08T02:16:35.173Z,0.00
2023-03-08T02:17:35.127Z,0.00
2023-03-08T02:18:34.953Z,0.00
2023-03-08T02:19:35.146Z,0.00
2023-03-08T02:20:34.852Z,0.00
2023-03-08T02:21:34.950Z,0.00
2023-03-08T02:22:34.759Z,0.00
2023-03-08T02:23:34.961Z,0.00
2023-03-08T02:24:34.660Z,0.00
2023-03-08T02:25:34.974Z,0.00
2023-03-08T02:26:34.575Z,0.00
2023-03-08T02:27:34.689Z,0.00
2023-03-08T02:28:34.495Z,0.00
2023-03-08T02:29:34.700Z,0.00
2023-03-08T02:30:34.421Z,0.00
2023-03-08T02:31:34.506Z,0.00
2023-03-08T02:32:34.359Z,0.00
2023-03-08T02:33:34.519Z,0.00
2023-03-08T02:34:34.197Z,0.00
2023-03-08T02:35:34.348Z,0.00
2023-03-08T02:36:34.106Z,0.00
2023-03-08T02:37:34.356Z,0.00
2023-03-08T02:38:34.016Z,0.00
2023-03-08T02:39:34.154Z,0.00
2023-03-08T02:40:33.922Z,0.00
2023-03-08T02:41:33.967Z,0.00
2023-03-08T02:42:33.817Z,0.00
2023-03-08T02:43:33.988Z,0.00
2023-03-08T02:44:33.733Z,0.00
2023-03-08T02:45:34.034Z,0.00
2023-03-08T02:46:33.625Z,0.00
2023-03-08T02:47:33.823Z,0.00
2023-03-08T02:48:33.532Z,0.00
2023-03-08T02:49:33.481Z,0.00
2023-03-08T02:50:33.451Z,0.00
2023-03-08T02:51:33.637Z,0.00
2023-03-08T02:52:33.407Z,0.00
2023-03-08T02:53:33.433Z,0.00
2023-03-08T02:54:33.252Z,0.00
2023-03-08T02:55:33.203Z,0.00
2023-03-08T02:56:33.169Z,0.00
2023-03-08T02:57:33.580Z,0.00
2023-03-08T02:58:33.059Z,0.00
2023-03-08T02:59:33.181Z,0.00
2023-03-08T03:00:32.962Z,0.00
2023-03-08T03:01:32.966Z,0.00
2023-03-08T03:02:32.877Z,0.00
2023-03-08T03:03:33.202Z,0.00
2023-03-08T03:04:32.793Z,0.00
2023-03-08T03:05:33.013Z,0.00
2023-03-08T03:06:32.720Z,0.00
2023-03-08T03:07:32.633Z,0.00
2023-03-08T03:08:32.583Z,0.00
2023-03-08T03:09:32.838Z,0.00
2023-03-08T03:10:32.490Z,0.00
2023-03-08T03:11:32.650Z,0.00
2023-03-08T03:12:32.398Z,0.00
2023-03-08T03:13:32.366Z,0.00
2023-03-08T03:14:32.314Z,0.00
2023-03-08T03:15:32.813Z,0.00
2023-03-08T03:16:32.202Z,0.00
2023-03-08T03:17:32.276Z,0.00
2023-03-08T03:18:32.113Z,0.00
2023-03-08T03:19:32.063Z,0.00
2023-03-08T03:20:32.014Z,0.00
2023-03-08T03:21:32.207Z,0.00
2023-03-08T03:22:31.920Z,0.00
2023-03-08T03:23:32.013Z,0.00
2023-03-08T03:24:31.820Z,0.00
2023-03-08T03:25:31.810Z,0.00
2023-03-08T03:26:32.037Z,0.00
2023-03-08T03:27:32.107Z,0.00
2023-03-08T03:28:31.868Z,0.00
2023-03-08T03:29:31.587Z,0.00
2023-03-08T03:30:31.655Z,0.00
2023-03-08T03:31:31.575Z,0.00
2023-03-08T03:32:31.691Z,0.00
2023-03-08T03:33:31.620Z,0.00
2023-03-08T03:34:31.474Z,0.00
2023-03-08T03:35:31.341Z,0.00
2023-03-08T03:36:31.263Z,0.00
2023-03-08T03:37:31.215Z,0.00
2023-03-08T03:38:31.297Z,0.00
2023-03-08T03:39:31.369Z,0.00
2023-03-08T03:40:31.318Z,0.00
2023-03-08T03:41:31.018Z,0.00
2023-03-08T03:42:30.978Z,0.00
2023-03-08T03:43:30.955Z,0.00
2023-03-08T03:44:32.170Z,0.00
2023-03-08T03:45:30.841Z,0.00
2023-03-08T03:46:30.968Z,0.00
2023-03-08T03:47:30.740Z,0.00
2023-03-08T03:48:30.699Z,0.00
2023-03-08T03:49:31.853Z,0.00
2023-03-08T03:50:30.781Z,0.00
2023-03-08T03:51:30.562Z,0.00
2023-03-08T03:52:30.795Z,0.00
2023-03-08T03:53:30.455Z,0.00
2023-03-08T03:54:30.414Z,0.00
2023-03-08T03:55:30.612Z,0.00
2023-03-08T03:56:30.326Z,0.00
2023-03-08T03:57:30.429Z,0.00
2023-03-08T03:58:30.231Z,0.00
2023-03-08T03:59:30.436Z,0.00
2023-03-08T04:00:30.134Z,0.00
2023-03-08T04:01:30.457Z,0.00
2023-03-08T04:02:30.162Z,0.00
2023-03-08T04:03:30.304Z,0.00
2023-03-08T04:04:29.944Z,0.00
2023-03-08T04:05:29.899Z,0.00
2023-03-08T04:06:29.856Z,0.00
2023-03-08T04:07:30.090Z,0.00
2023-03-08T04:08:29.946Z,0.00
2023-03-08T04:09:29.901Z,0.00
2023-03-08T04:10:29.666Z,0.00
2023-03-08T04:11:29.734Z,0.00
2023-03-08T04:12:29.573Z,0.00
2023-03-08T04:13:29.729Z,0.00
2023-03-08T04:14:29.488Z,0.00
2023-03-08T04:15:30.557Z,0.00
2023-03-08T04:16:29.650Z,0.00
2023-03-08T04:17:29.339Z,0.00
2023-03-08T04:18:29.461Z,0.00
2023-03-08T04:19:29.725Z,0.00
2023-03-08T04:20:29.470Z,0.00
2023-03-08T04:21:29.154Z,0.00
2023-03-08T04:22:29.109Z,0.00
2023-03-08T04:23:29.050Z,0.00
2023-03-08T04:24:29.287Z,0.00
2023-03-08T04:25:29.089Z,0.00
2023-03-08T04:26:29.113Z,0.00
2023-03-08T04:27:28.866Z,0.00
2023-03-08T04:28:28.808Z,0.00
2023-03-08T04:29:28.762Z,0.00
2023-03-08T04:30:28.962Z,0.00
2023-03-08T04:31:29.058Z,0.00
2023-03-08T04:32:29.008Z,0.00
2023-03-08T04:33:28.571Z,0.00
2023-03-08T04:34:28.523Z,0.00
2023-03-08T04:35:28.475Z,0.00
2023-03-08T04:36:28.561Z,0.00
2023-03-08T04:37:28.422Z,0.00
2023-03-08T04:38:28.473Z,0.00
2023-03-08T04:39:28.298Z,0.00
2023-03-08T04:40:28.243Z,0.00
2023-03-08T04:41:28.291Z,0.00
2023-03-08T04:42:28.148Z,0.00
2023-03-08T04:43:28.311Z,0.00
2023-03-08T04:44:28.053Z,0.00
2023-03-08T04:45:28.026Z,0.00
2023-03-08T04:46:28.034Z,0.00
2023-03-08T04:47:28.043Z,0.00
2023-03-08T04:48:27.862Z,0.00
2023-03-08T04:49:28.054Z,0.00
2023-03-08T04:50:27.772Z,0.00
2023-03-08T04:51:27.718Z,0.00
2023-03-08T04:52:27.880Z,0.00
2023-03-08T04:53:27.630Z,0.00
2023-03-08T04:54:27.892Z,0.00
2023-03-08T04:55:27.539Z,0.00
2023-03-08T04:56:27.706Z,0.00
2023-03-08T04:57:27.435Z,0.00
2023-03-08T04:58:27.510Z,0.00
2023-03-08T04:59:27.364Z,0.00
2023-03-08T05:00:27.509Z,0.00
2023-03-08T05:01:27.246Z,0.00
2023-03-08T05:02:27.276Z,0.00
2023-03-08T05:03:27.149Z,0.00
2023-03-08T05:04:27.345Z,0.00
2023-03-08T05:05:27.071Z,0.00
2023-03-08T05:06:27.041Z,0.00
2023-03-08T05:07:27.161Z,0.00
2023-03-08T05:08:26.920Z,0.00
2023-03-08T05:09:27.063Z,0.00
2023-03-08T05:10:26.823Z,0.00
2023-03-08T05:11:26.873Z,0.00
2023-03-08T05:12:26.757Z,0.00
2023-03-08T05:13:27.826Z,0.00
2023-03-08T05:14:26.632Z,0.00
2023-03-08T05:15:26.812Z,0.00
2023-03-08T05:16:26.600Z,0.00
2023-03-08T05:17:26.606Z,0.00
2023-03-08T05:18:26.668Z,0.00
2023-03-08T05:19:26.420Z,0.00
2023-03-08T05:20:26.351Z,0.00
2023-03-08T05:21:26.439Z,0.00
2023-03-08T05:22:26.252Z,0.00
2023-03-08T05:23:28.354Z,0.00
2023-03-08T05:24:26.203Z,0.00
2023-03-08T05:25:26.113Z,0.00
2023-03-08T05:26:26.060Z,0.00
2023-03-08T05:27:26.176Z,0.00
2023-03-08T05:28:25.971Z,0.00
2023-03-08T05:29:27.312Z,0.00
2023-03-08T05:30:25.869Z,4.00
2023-03-08T05:31:25.870Z,4.00
2023-03-08T05:32:25.958Z,0.00
2023-03-08T05:33:25.769Z,4.00
2023-03-08T05:34:25.912Z,8.00
2023-03-08T05:35:25.664Z,8.00
2023-03-08T05:36:25.832Z,8.00
2023-03-08T05:37:27.302Z,12.00
2023-03-08T05:38:25.545Z,12.00
2023-03-08T05:39:25.448Z,16.00
2023-03-08T05:40:25.554Z,20.00
2023-03-08T05:41:25.395Z,24.00
2023-03-08T05:42:25.303Z,24.00
2023-03-08T05:43:25.252Z,32.00
2023-03-08T05:44:25.372Z,36.00
2023-03-08T05:45:25.233Z,44.00
2023-03-08T05:46:25.229Z,52.00
2023-03-08T05:47:25.143Z,56.00
2023-03-08T05:48:25.018Z,64.00
2023-03-08T05:49:24.975Z,68.00
2023-03-08T05:50:25.127Z,80.00
2023-03-08T05:51:24.890Z,92.00
2023-03-08T05:52:24.921Z,108.00
2023-03-08T05:53:24.813Z,124.00
2023-03-08T05:54:24.834Z,144.00
2023-03-08T05:55:24.676Z,168.00
2023-03-08T05:56:24.846Z,192.00
2023-03-08T05:57:24.584Z,224.00
2023-03-08T05:58:24.671Z,252.00
2023-03-08T05:59:24.861Z,280.00
2023-03-08T06:03:47.835Z,468.00
2023-03-08T06:04:47.432Z,516.00
2023-03-08T06:05:47.370Z,580.00
2023-03-08T06:06:48.370Z,656.00
2023-03-08T06:07:47.273Z,712.00
2023-03-08T06:08:47.348Z,752.00
2023-03-08T06:09:47.169Z,788.00
2023-03-08T06:10:47.235Z,828.00
2023-03-08T06:11:47.072Z,872.00
2023-03-08T06:14:21.646Z,1000.00
2023-03-08T06:15:20.171Z,1060.00
2023-03-08T06:16:20.323Z,1116.00
2023-03-08T06:17:20.087Z,1192.00
2023-03-08T06:18:27.748Z,1284.00
2023-03-08T06:20:52.454Z,1476.00
2023-03-08T06:21:52.082Z,1532.00
2023-03-08T06:22:52.021Z,1588.00
2023-03-08T06:23:52.065Z,1668.00
2023-03-08T06:24:51.923Z,1772.00
2023-03-08T06:25:52.081Z,1892.00
2023-03-08T06:26:51.832Z,2024.00
2023-03-08T06:27:52.304Z,2176.00
2023-03-08T06:28:51.740Z,2376.00
2023-03-08T06:29:52.759Z,2560.00
2023-03-08T06:30:51.716Z,2668.00
2023-03-08T06:31:51.824Z,2872.00
2023-03-08T06:32:51.562Z,3144.00
2023-03-08T06:33:51.522Z,3316.00
2023-03-08T06:34:51.446Z,3416.00
2023-03-08T06:35:51.687Z,3636.00
2023-03-08T06:36:51.353Z,4036.00
2023-03-08T06:37:51.462Z,4504.00
2023-03-08T06:38:51.291Z,4772.00
2023-03-08T06:39:51.217Z,4620.00
2023-03-08T06:40:51.173Z,4004.00
2023-03-08T06:41:51.285Z,3416.00
2023-03-08T06:42:51.086Z,3232.00
2023-03-08T06:43:51.105Z,3328.00
2023-03-08T06:44:50.998Z,3580.00
2023-03-08T06:45:50.970Z,3836.00
2023-03-08T06:46:51.326Z,4096.00
2023-03-08T06:47:50.884Z,4508.00
2023-03-08T06:48:50.939Z,4756.00
2023-03-08T06:49:50.767Z,4568.00
2023-03-08T06:50:50.702Z,4492.00
2023-03-08T06:51:50.655Z,4648.00
2023-03-08T06:52:50.756Z,4812.00
2023-03-08T06:53:50.566Z,4856.00
2023-03-08T06:54:50.575Z,4872.00
2023-03-08T06:55:50.480Z,4976.00
2023-03-08T06:56:50.435Z,4976.00
2023-03-08T06:57:50.376Z,4908.00
2023-03-08T06:58:51.627Z,5224.00
2023-03-08T06:59:50.283Z,5640.00
2023-03-08T07:00:50.416Z,5832.00
2023-03-08T07:01:50.208Z,5820.00
2023-03-08T07:02:50.140Z,5832.00
2023-03-08T07:03:50.089Z,5844.00
2023-03-08T07:04:50.268Z,5964.00
2023-03-08T07:05:49.999Z,6232.00
2023-03-08T07:06:51.331Z,6336.00
2023-03-08T07:07:49.920Z,6224.00
2023-03-08T07:08:49.875Z,6036.00
2023-03-08T07:09:49.960Z,5928.00
2023-03-08T07:10:49.754Z,6000.00
2023-03-08T07:11:49.799Z,6028.00
2023-03-08T07:12:49.665Z,6436.00
2023-03-08T07:13:49.633Z,7128.00
2023-03-08T07:14:49.568Z,7184.00
2023-03-08T07:15:49.841Z,6704.00
2023-03-08T07:16:49.475Z,6140.00
2023-03-08T07:17:49.622Z,5812.00
2023-03-08T07:18:49.385Z,5772.00
2023-03-08T07:19:49.337Z,5796.00
2023-03-08T07:20:49.312Z,6024.00
2023-03-08T07:21:49.453Z,6112.00
2023-03-08T07:22:49.198Z,5964.00
2023-03-08T07:23:49.271Z,5776.00
2023-03-08T07:24:49.753Z,5388.00
2023-03-08T07:25:49.070Z,4508.00
2023-03-08T07:26:49.013Z,3948.00
2023-03-08T07:27:49.278Z,4216.00
2023-03-08T07:28:48.917Z,4316.00
2023-03-08T07:29:49.100Z,3992.00
2023-03-08T07:30:48.830Z,3260.00
2023-03-08T07:31:48.850Z,2708.00
2023-03-08T07:32:48.853Z,2588.00
2023-03-08T07:34:09.799Z,2436.00
2023-03-08T07:34:48.642Z,2572.00
2023-03-08T07:35:49.767Z,2812.00
2023-03-08T07:36:48.541Z,2872.00
2023-03-08T07:37:48.497Z,3368.00
2023-03-08T07:38:48.737Z,3824.00
2023-03-08T07:39:48.402Z,3904.00
2023-03-08T07:40:49.575Z,4428.00
2023-03-08T07:41:48.310Z,4956.00
2023-03-08T07:42:48.462Z,4404.00
2023-03-08T07:43:48.215Z,3904.00
2023-03-08T07:44:48.372Z,4104.00
2023-03-08T07:45:48.126Z,3996.00
2023-03-08T07:46:48.289Z,3808.00
2023-03-08T07:47:48.031Z,3860.00
2023-03-08T07:48:48.405Z,4080.00
2023-03-08T07:49:47.937Z,4172.00
2023-03-08T07:50:48.109Z,4300.00
2023-03-08T07:51:47.857Z,4752.00
2023-03-08T07:52:47.930Z,5100.00
2023-03-08T07:53:47.753Z,5588.00
2023-03-08T07:54:48.049Z,5844.00
2023-03-08T07:55:47.663Z,6500.00
2023-03-08T07:56:47.740Z,6976.00
2023-03-08T07:57:47.576Z,7172.00
2023-03-08T07:58:47.659Z,6888.00
2023-03-08T07:59:47.474Z,6352.00
2023-03-08T08:00:47.742Z,6616.00
2023-03-08T08:01:47.379Z,7020.00
2023-03-08T08:02:48.560Z,7356.00
2023-03-08T08:03:47.369Z,7340.00
2023-03-08T08:04:47.535Z,7336.00
2023-03-08T08:05:47.193Z,8108.00
2023-03-08T08:06:47.163Z,9556.00
2023-03-08T08:07:47.321Z,10484.00
2023-03-08T08:08:47.174Z,10420.00
2023-03-08T08:09:47.133Z,10584.00
2023-03-08T08:10:46.963Z,10032.00
2023-03-08T08:11:47.140Z,9760.00
2023-03-08T08:12:46.907Z,10096.00
2023-03-08T08:13:46.950Z,9772.00
2023-03-08T08:14:46.795Z,8404.00
2023-03-08T08:15:46.861Z,7184.00
2023-03-08T08:16:46.675Z,7012.00
2023-03-08T08:17:46.658Z,6700.00
2023-03-08T08:18:46.586Z,6864.00
2023-03-08T08:19:47.734Z,6720.00
2023-03-08T08:20:47.772Z,7196.00
2023-03-08T08:21:46.706Z,8992.00
2023-03-08T08:22:46.390Z,9912.00
2023-03-08T08:23:46.348Z,10228.00
2023-03-08T08:24:46.515Z,11496.00
2023-03-08T08:25:46.266Z,12484.00
2023-03-08T08:26:46.325Z,10476.00
2023-03-08T08:27:46.385Z,7572.00
2023-03-08T08:28:46.336Z,7372.00
2023-03-08T08:29:46.076Z,7552.00
2023-03-08T08:30:46.147Z,7664.00
2023-03-08T08:31:46.050Z,7988.00
2023-03-08T08:32:46.216Z,8580.00
2023-03-08T08:33:45.962Z,8948.00
2023-03-08T08:34:46.042Z,8188.00
2023-03-08T08:35:45.815Z,7232.00
2023-03-08T08:36:46.038Z,6668.00
2023-03-08T08:37:45.695Z,6436.00
2023-03-08T08:38:45.808Z,6608.00
2023-03-08T08:39:45.607Z,7360.00
2023-03-08T08:40:45.568Z,7984.00
2023-03-08T08:41:45.509Z,8692.00
2023-03-08T08:42:45.627Z,8752.00
2023-03-08T08:43:45.430Z,8576.00
2023-03-08T08:44:45.427Z,9652.00
2023-03-08T08:45:45.463Z,9768.00
2023-03-08T08:46:45.393Z,8388.00
2023-03-08T08:47:45.228Z,8676.00
2023-03-08T08:48:45.472Z,9428.00
2023-03-08T08:49:45.134Z,9900.00
2023-03-08T08:50:45.491Z,9888.00
2023-03-08T08:51:45.044Z,9452.00
2023-03-08T08:52:45.327Z,8992.00
2023-03-08T08:53:44.957Z,8992.00
2023-03-08T08:54:45.334Z,9052.00
2023-03-08T08:55:45.689Z,8980.00
2023-03-08T08:56:44.909Z,8524.00
2023-03-08T08:57:45.120Z,9592.00
2023-03-08T08:58:44.717Z,11940.00
2023-03-08T08:59:44.928Z,14368.00
2023-03-08T09:00:44.667Z,15152.00
2023-03-08T09:01:45.771Z,13652.00
2023-03-08T09:02:44.544Z,12020.00
2023-03-08T09:03:44.535Z,11996.00
2023-03-08T09:04:44.524Z,11632.00
2023-03-08T09:05:45.497Z,11188.00
2023-03-08T09:06:52.226Z,11752.00
2023-03-08T09:09:18.896Z,13928.00
2023-03-08T09:10:18.847Z,13788.00
2023-03-08T09:11:20.947Z,14788.00
2023-03-08T09:12:18.846Z,18240.00
2023-03-08T09:13:18.989Z,17856.00
2023-03-08T09:14:18.657Z,16844.00
2023-03-08T09:15:18.613Z,15552.00
2023-03-08T09:16:18.769Z,14296.00
2023-03-08T09:17:18.519Z,14156.00
2023-03-08T09:18:18.747Z,14220.00
2023-03-08T09:19:18.469Z,14380.00
2023-03-08T09:20:21.429Z,14536.00
2023-03-08T09:21:18.336Z,12900.00
2023-03-08T09:22:18.474Z,12876.00
2023-03-08T09:23:18.270Z,13108.00
2023-03-08T09:24:18.493Z,12160.00
2023-03-08T09:25:18.150Z,13464.00
2023-03-08T09:26:18.105Z,14484.00
2023-03-08T09:27:18.061Z,14012.00
2023-03-08T09:28:19.242Z,13100.00
2023-03-08T09:29:17.977Z,13228.00
2023-03-08T09:30:20.480Z,14080.00
2023-03-08T09:31:18.005Z,11892.00
2023-03-08T09:32:18.222Z,13256.00
2023-03-08T09:33:17.794Z,15092.00
2023-03-08T09:34:17.846Z,14272.00
2023-03-08T09:35:17.737Z,14680.00
2023-03-08T09:36:18.066Z,14868.00
2023-03-08T09:37:17.609Z,15112.00
2023-03-08T09:38:17.554Z,14548.00
2023-03-08T09:39:17.513Z,14284.00
2023-03-08T09:40:17.684Z,13636.00
2023-03-08T09:41:17.412Z,13120.00
2023-03-08T09:42:17.700Z,14692.00
2023-03-08T09:43:17.331Z,15528.00
2023-03-08T09:44:17.289Z,16748.00
2023-03-08T09:45:17.528Z,16348.00
2023-03-08T09:46:17.331Z,12528.00
2023-03-08T09:47:17.330Z,14436.00
2023-03-08T09:48:17.179Z,14760.00
2023-03-08T09:49:17.350Z,14500.00
2023-03-08T09:50:17.018Z,11596.00
2023-03-08T09:51:17.160Z,16268.00
2023-03-08T09:52:16.928Z,20352.00
2023-03-08T09:53:16.901Z,18848.00
2023-03-08T09:54:16.994Z,19232.00
2023-03-08T09:55:16.891Z,15432.00
2023-03-08T09:56:16.730Z,11108.00
2023-03-08T09:57:16.927Z,17408.00
2023-03-08T09:58:17.177Z,18976.00
2023-03-08T09:59:16.706Z,12732.00
2023-03-08T10:00:16.549Z,16412.00
2023-03-08T10:01:16.497Z,16252.00
2023-03-08T10:02:16.454Z,16068.00
2023-03-08T10:03:18.802Z,14624.00
2023-03-08T10:04:16.388Z,15728.00
2023-03-08T10:05:17.574Z,15412.00
2023-03-08T10:06:25.509Z,16056.00
2023-03-08T10:07:16.211Z,16076.00
2023-03-08T10:08:16.188Z,16096.00
2023-03-08T10:09:16.126Z,15128.00
2023-03-08T10:10:16.078Z,14332.00
2023-03-08T10:11:16.026Z,13028.00
2023-03-08T10:12:15.985Z,12080.00
2023-03-08T10:13:15.940Z,14432.00
2023-03-08T10:14:15.911Z,16156.00
2023-03-08T10:15:15.843Z,19008.00
2023-03-08T10:16:15.848Z,16792.00
2023-03-08T10:17:15.751Z,14372.00
2023-03-08T10:18:15.710Z,14860.00
2023-03-08T10:19:15.661Z,12712.00
2023-03-08T10:20:24.552Z,13432.00
2023-03-08T10:21:25.446Z,14692.00
2023-03-08T10:22:15.524Z,12964.00
2023-03-08T10:23:15.484Z,14212.00
2023-03-08T10:24:15.435Z,14116.00
2023-03-08T10:25:15.389Z,12032.00
2023-03-08T10:26:15.360Z,13736.00
2023-03-08T10:27:15.301Z,13264.00
2023-03-08T10:28:15.250Z,18816.00
2023-03-08T10:29:15.244Z,24768.00
2023-03-08T10:30:15.160Z,23840.00
2023-03-08T10:31:15.167Z,18368.00
2023-03-08T10:32:15.151Z,16440.00
2023-03-08T10:33:15.032Z,19232.00
2023-03-08T10:34:14.994Z,18208.00
2023-03-08T10:35:14.932Z,14392.00
2023-03-08T10:36:14.890Z,14904.00
2023-03-08T10:37:14.881Z,14188.00
2023-03-08T10:38:14.827Z,16536.00
2023-03-08T10:39:14.787Z,18656.00
2023-03-08T10:40:14.708Z,16960.00
2023-03-08T10:41:14.668Z,15080.00
2023-03-08T10:42:14.622Z,12476.00
2023-03-08T10:43:14.571Z,15780.00
2023-03-08T10:44:14.580Z,14720.00
2023-03-08T10:45:14.479Z,15104.00
2023-03-08T10:46:14.499Z,14684.00
2023-03-08T10:47:14.395Z,18432.00
2023-03-08T10:48:14.345Z,18112.00
2023-03-08T10:49:14.303Z,17568.00
2023-03-08T10:50:14.277Z,16044.00
2023-03-08T10:51:14.242Z,13008.00
2023-03-08T10:52:14.172Z,13412.00
2023-03-08T10:53:14.127Z,13900.00
2023-03-08T10:54:14.078Z,18432.00
2023-03-08T10:55:14.033Z,18144.00
2023-03-08T10:56:14.067Z,15780.00
2023-03-08T10:57:14.114Z,15732.00
2023-03-08T10:58:13.922Z,16432.00
2023-03-08T10:59:13.855Z,14576.00
2023-03-08T11:00:13.804Z,16368.00
2023-03-08T11:01:13.758Z,16860.00
2023-03-08T11:02:13.744Z,21824.00
2023-03-08T11:03:13.703Z,24896.00
2023-03-08T11:04:13.724Z,18208.00
2023-03-08T11:05:13.581Z,23520.00
2023-03-08T11:06:13.560Z,27552.00
2023-03-08T11:07:13.489Z,25760.00
2023-03-08T11:08:13.444Z,24832.00
2023-03-08T11:09:13.425Z,29824.00
2023-03-08T11:10:13.387Z,35456.00
2023-03-08T11:11:13.353Z,33568.00
2023-03-08T11:12:13.304Z,33952.00
2023-03-08T11:13:13.230Z,32032.00
2023-03-08T11:14:13.308Z,34016.00
2023-03-08T11:15:13.312Z,31072.00
2023-03-08T11:16:13.148Z,37376.00
2023-03-08T11:17:13.045Z,33536.00
2023-03-08T11:18:13.008Z,34400.00
2023-03-08T11:19:12.995Z,36352.00
2023-03-08T11:20:12.908Z,38080.00
2023-03-08T11:21:12.881Z,32480.00
2023-03-08T11:22:12.824Z,36352.00
2023-03-08T11:23:12.778Z,33984.00
2023-03-08T11:24:12.762Z,38112.00
2023-03-08T11:25:12.688Z,38592.00
2023-03-08T11:26:12.823Z,37312.00
2023-03-08T11:27:12.673Z,35584.00
2023-03-08T11:28:12.624Z,31616.00
2023-03-08T11:29:12.542Z,31488.00
2023-03-08T11:30:12.792Z,30592.00
2023-03-08T11:31:12.454Z,29184.00
2023-03-08T11:32:12.583Z,24928.00
2023-03-08T11:33:12.569Z,26176.00
2023-03-08T11:34:12.372Z,26848.00
2023-03-08T11:35:12.255Z,22144.00
2023-03-08T11:36:13.159Z,26176.00
2023-03-08T11:37:12.171Z,27168.00
2023-03-08T11:38:12.143Z,28096.00
2023-03-08T11:39:12.084Z,29056.00
2023-03-08T11:40:12.038Z,31776.00
2023-03-08T11:41:11.998Z,26944.00
2023-03-08T11:42:12.562Z,27584.00
2023-03-08T11:43:11.907Z,29888.00
2023-03-08T11:44:12.041Z,29088.00
2023-03-08T11:45:11.822Z,25408.00
2023-03-08T11:46:11.815Z,29248.00
2023-03-08T11:47:11.738Z,25408.00
2023-03-08T11:48:12.564Z,23104.00
2023-03-08T11:49:11.651Z,28704.00
2023-03-08T11:50:11.774Z,28992.00
2023-03-08T11:51:11.563Z,29792.00
2023-03-08T11:52:11.523Z,34592.00
2023-03-08T11:53:11.471Z,28832.00
2023-03-08T11:54:11.428Z,30048.00
2023-03-08T11:55:11.428Z,33824.00
2023-03-08T11:56:11.350Z,24960.00
2023-03-08T11:57:11.295Z,24192.00
2023-03-08T11:58:11.256Z,22208.00
2023-03-08T11:59:11.207Z,27680.00
2023-03-08T12:00:11.179Z,24352.00
2023-03-08T12:01:11.122Z,21152.00
2023-03-08T12:02:11.088Z,20800.00
2023-03-08T12:03:11.105Z,19104.00
2023-03-08T12:04:11.052Z,22080.00
2023-03-08T12:05:10.989Z,19936.00
2023-03-08T12:06:22.818Z,21472.00
2023-03-08T12:07:11.019Z,23808.00
2023-03-08T12:08:10.840Z,31264.00
2023-03-08T12:09:10.792Z,31328.00
2023-03-08T12:10:10.779Z,30880.00
2023-03-08T12:11:10.915Z,33216.00
2023-03-08T12:12:10.642Z,29344.00
2023-03-08T12:13:10.600Z,35680.00
2023-03-08T12:14:10.555Z,33440.00
2023-03-08T12:15:10.550Z,33440.00
2023-03-08T12:16:10.487Z,37312.00
2023-03-08T12:17:10.754Z,28672.00
2023-03-08T12:18:10.387Z,31040.00
2023-03-08T12:19:10.341Z,36384.00
2023-03-08T12:20:10.308Z,31360.00
2023-03-08T12:21:10.423Z,30496.00
2023-03-08T12:22:10.213Z,20288.00
2023-03-08T12:23:10.223Z,24576.00
2023-03-08T12:24:10.172Z,30752.00
2023-03-08T12:25:10.083Z,31552.00
2023-03-08T12:26:10.038Z,31040.00
2023-03-08T12:27:10.019Z,25984.00
2023-03-08T12:28:10.011Z,18208.00
2023-03-08T12:29:09.946Z,24416.00
2023-03-08T12:30:09.873Z,25888.00
2023-03-08T12:31:26.100Z,27200.00
2023-03-08T12:32:09.914Z,27040.00
2023-03-08T12:33:09.969Z,30016.00
2023-03-08T12:34:11.635Z,34272.00
2023-03-08T12:35:09.661Z,30016.00
2023-03-08T12:36:09.727Z,25472.00
2023-03-08T12:37:09.597Z,33920.00
2023-03-08T12:38:09.605Z,34624.00